Time;durP1;ratioP1;P1;durP2;ratioP2;P2;SDS_P1;SDS_P2;PMS_P1;PMS_P2;Temp;Humidity;BMP_temperature;BMP_pressure;BME280_temperature;BME280_humidity;BME280_pressure;Samples;Min_cycle;Max_cycle;Signal;HPM_P1;HPM_P2
2023/08/19 00:01:36;;;;;;;15.57;14.07;;;25.20;99.90;;;;;;5114010;28;20521;-75
2023/08/19 00:04:02;;;;;;;16.55;15.05;;;25.20;99.90;;;;;;5112546;28;20211;-75
2023/08/19 00:06:36;;;;;;;15.63;14.13;;;25.20;99.90;;;;;;5113456;28;20174;-75
2023/08/19 00:09:04;;;;;;;14.10;12.80;;;25.20;99.90;;;;;;5114029;28;20174;-75
2023/08/19 00:11:34;;;;;;;15.80;13.50;;;25.10;99.90;;;;;;5113896;28;20163;-75
2023/08/19 00:14:00;;;;;;;19.13;13.70;;;25.20;99.90;;;;;;5113717;28;20232;-75
2023/08/19 00:16:26;;;;;;;19.67;14.15;;;25.20;99.90;;;;;;5113745;28;20167;-76
2023/08/19 00:18:52;;;;;;;14.15;12.75;;;25.20;99.90;;;;;;5113110;28;20218;-75
2023/08/19 00:21:17;;;;;;;13.70;12.40;;;25.20;99.90;;;;;;5113760;28;20174;-75
2023/08/19 00:23:43;;;;;;;13.80;12.43;;;25.20;99.90;;;;;;5113761;28;20202;-75
2023/08/19 00:26:11;;;;;;;17.38;13.02;;;25.20;99.90;;;;;;5112381;28;20168;-76
2023/08/19 00:28:39;;;;;;;13.80;12.40;;;25.20;99.90;;;;;;5113662;28;20179;-75
2023/08/19 00:31:06;;;;;;;14.43;12.20;;;25.30;99.90;;;;;;5113716;28;20167;-75
2023/08/19 00:33:32;;;;;;;12.60;11.50;;;25.30;99.90;;;;;;5113386;28;20175;-75
2023/08/19 00:35:59;;;;;;;12.68;11.68;;;25.30;99.90;;;;;;5113584;28;20220;-75
2023/08/19 00:38:24;;;;;;;12.38;11.27;;;25.30;99.90;;;;;;5113499;28;20166;-75
2023/08/19 00:40:50;;;;;;;15.18;11.32;;;25.20;99.90;;;;;;5113566;28;20164;-75
2023/08/19 00:43:16;;;;;;;12.98;11.70;;;25.20;99.90;;;;;;5113405;28;20211;-75
2023/08/19 00:45:45;;;;;;;11.65;10.65;;;25.20;99.90;;;;;;5113589;28;20167;-76
2023/08/19 00:48:15;;;;;;;11.80;10.70;;;25.20;99.90;;;;;;5113131;28;20192;-76
2023/08/19 00:50:42;;;;;;;14.32;10.45;;;25.20;99.90;;;;;;5113569;28;20182;-76
2023/08/19 00:53:09;;;;;;;11.73;10.48;;;25.20;99.90;;;;;;5113507;28;20168;-76
2023/08/19 00:55:36;;;;;;;11.32;10.15;;;25.20;99.90;;;;;;5113495;28;20623;-76
2023/08/19 00:58:07;;;;;;;15.82;10.18;;;25.20;99.90;;;;;;5113625;28;20195;-76
2023/08/19 01:00:34;;;;;;;11.68;10.57;;;25.20;99.90;;;;;;5113397;28;20262;-76
2023/08/19 01:03:00;;;;;;;10.68;9.77;;;25.20;99.90;;;;;;5112990;28;20206;-76
2023/08/19 01:05:57;;;;;;;10.75;9.65;;;25.20;99.90;;;;;;5112192;28;20599;-74
2023/08/19 01:08:29;;;;;;;12.38;9.43;;;25.20;99.90;;;;;;5109209;28;20191;-75
2023/08/19 01:11:24;;;;;;;10.88;9.75;;;25.20;99.90;;;;;;5113752;28;20216;-74
2023/08/19 01:14:05;;;;;;;11.80;9.38;;;25.20;99.90;;;;;;5117167;28;20171;-74
2023/08/19 01:16:32;;;;;;;10.75;9.75;;;25.20;99.90;;;;;;5115917;28;20540;-75
2023/08/19 01:18:59;;;;;;;11.07;10.07;;;25.20;99.90;;;;;;5116565;27;20223;-74
2023/08/19 01:21:25;;;;;;;11.63;9.73;;;25.20;99.90;;;;;;5117242;28;20171;-74
2023/08/19 01:23:55;;;;;;;10.27;8.77;;;25.20;99.90;;;;;;5117052;28;20264;-75
2023/08/19 01:26:21;;;;;;;11.10;9.57;;;25.20;99.90;;;;;;5116906;27;20174;-75
2023/08/19 01:28:47;;;;;;;12.48;9.73;;;25.20;99.90;;;;;;5117022;27;20171;-75
2023/08/19 01:31:12;;;;;;;10.63;9.60;;;25.20;99.90;;;;;;5116790;28;20198;-76
2023/08/19 01:33:39;;;;;;;11.43;8.93;;;25.20;99.90;;;;;;5116471;28;20167;-75
2023/08/19 01:36:16;;;;;;;9.77;8.80;;;25.20;99.90;;;;;;5115379;28;20269;-75
2023/08/19 01:38:59;;;;;;;9.50;8.55;;;25.20;99.90;;;;;;5116751;28;20189;-75
2023/08/19 01:41:29;;;;;;;9.77;8.68;;;25.20;99.90;;;;;;5116685;28;20250;-75
2023/08/19 01:43:57;;;;;;;8.95;8.23;;;25.20;99.90;;;;;;5115202;28;20298;-74
2023/08/19 01:46:24;;;;;;;8.50;7.80;;;25.20;99.90;;;;;;5116376;28;20224;-76
2023/08/19 01:48:49;;;;;;;9.32;8.38;;;25.20;99.90;;;;;;5116378;28;20735;-74
2023/08/19 01:51:15;;;;;;;8.88;7.95;;;25.20;99.90;;;;;;5116521;28;20176;-75
2023/08/19 01:53:41;;;;;;;8.73;7.38;;;25.30;99.90;;;;;;5116519;28;20168;-75
2023/08/19 01:56:06;;;;;;;8.70;7.90;;;25.20;99.90;;;;;;5116425;28;20167;-75
2023/08/19 01:58:32;;;;;;;9.32;7.70;;;25.30;99.90;;;;;;5114999;28;20244;-75
2023/08/19 02:00:58;;;;;;;7.80;7.15;;;25.30;99.90;;;;;;5115762;28;20178;-75
2023/08/19 02:03:23;;;;;;;8.13;7.00;;;25.30;99.90;;;;;;5116511;28;20206;-75
2023/08/19 02:05:49;;;;;;;8.35;7.35;;;25.30;99.90;;;;;;5116209;28;20167;-75
2023/08/19 02:08:14;;;;;;;9.20;7.43;;;25.30;99.90;;;;;;5116102;28;20640;-76
2023/08/19 02:10:42;;;;;;;7.90;7.07;;;25.40;99.90;;;;;;5116060;28;20258;-76
2023/08/19 02:13:08;;;;;;;8.32;7.22;;;25.40;99.90;;;;;;5116119;27;20254;-75
2023/08/19 02:15:34;;;;;;;8.23;7.22;;;25.40;99.90;;;;;;5115415;28;20707;-75
2023/08/19 02:18:00;;;;;;;7.63;6.88;;;25.40;99.90;;;;;;5115907;28;20231;-74
2023/08/19 02:20:26;;;;;;;9.15;7.10;;;25.40;99.90;;;;;;5115842;28;20172;-74
2023/08/19 02:22:53;;;;;;;8.35;7.22;;;25.40;99.90;;;;;;5115401;28;20686;-74
2023/08/19 02:25:18;;;;;;;7.72;7.03;;;25.40;99.90;;;;;;5115961;28;20171;-75
2023/08/19 02:27:44;;;;;;;7.63;6.85;;;25.40;99.90;;;;;;5115739;28;20538;-75
2023/08/19 02:30:10;;;;;;;7.57;6.53;;;25.40;99.90;;;;;;5115055;28;20219;-75
2023/08/19 02:32:38;;;;;;;7.47;6.78;;;25.50;99.90;;;;;;5115929;27;20199;-75
2023/08/19 02:35:04;;;;;;;7.38;6.68;;;25.50;99.90;;;;;;5114299;28;20631;-75
2023/08/19 02:37:30;;;;;;;7.38;6.00;;;25.50;99.90;;;;;;5115541;28;20176;-75
2023/08/19 02:39:55;;;;;;;7.22;6.38;;;25.60;99.90;;;;;;5115397;28;20194;-75
2023/08/19 02:42:21;;;;;;;7.03;6.40;;;25.60;99.90;;;;;;5115358;28;20235;-75
2023/08/19 02:44:46;;;;;;;7.55;6.90;;;25.60;99.90;;;;;;5114893;28;20224;-75
2023/08/19 02:47:12;;;;;;;7.13;6.53;;;25.70;99.90;;;;;;5115567;28;20205;-75
2023/08/19 02:49:38;;;;;;;8.05;7.00;;;25.70;99.90;;;;;;5115391;28;20171;-75
2023/08/19 02:52:05;;;;;;;8.68;7.82;;;25.80;99.90;;;;;;5115387;28;20571;-75
2023/08/19 02:54:30;;;;;;;9.10;6.47;;;25.70;99.90;;;;;;5115203;27;20187;-75
2023/08/19 02:56:56;;;;;;;7.15;6.55;;;25.80;99.90;;;;;;5113967;28;20247;-75
2023/08/19 02:59:21;;;;;;;8.75;5.90;;;25.80;99.90;;;;;;5114760;28;20310;-75
2023/08/19 03:01:47;;;;;;;10.45;7.72;;;25.80;99.90;;;;;;5115255;28;20577;-75
2023/08/19 03:04:13;;;;;;;7.03;6.30;;;25.80;99.90;;;;;;5113585;28;20314;-75
2023/08/19 03:06:38;;;;;;;7.55;6.75;;;25.60;99.90;;;;;;5115032;28;20246;-75
2023/08/19 03:09:05;;;;;;;7.05;6.20;;;25.60;99.90;;;;;;5113664;28;20205;-75
2023/08/19 03:11:30;;;;;;;7.13;6.43;;;25.60;99.90;;;;;;5114825;28;20171;-74
2023/08/19 03:13:56;;;;;;;6.93;6.15;;;25.70;99.90;;;;;;5114410;28;20171;-75
2023/08/19 03:16:22;;;;;;;6.53;5.88;;;25.70;99.90;;;;;;5114700;28;20206;-75
2023/08/19 03:18:47;;;;;;;6.55;5.90;;;25.70;99.90;;;;;;5114369;28;20313;-74
2023/08/19 03:21:13;;;;;;;6.80;5.90;;;25.80;99.90;;;;;;5114783;28;20673;-75
2023/08/19 03:23:38;;;;;;;7.00;6.38;;;25.80;99.90;;;;;;5114661;28;20206;-74
2023/08/19 03:26:04;;;;;;;6.20;5.70;;;25.80;99.90;;;;;;5114672;28;20643;-75
2023/08/19 03:28:29;;;;;;;6.93;5.90;;;25.80;99.90;;;;;;5114087;28;20167;-75
2023/08/19 03:30:55;;;;;;;8.35;6.15;;;25.80;99.90;;;;;;5114373;28;20606;-75
2023/08/19 03:33:21;;;;;;;6.72;6.05;;;25.80;99.90;;;;;;5113925;28;20178;-75
2023/08/19 03:35:46;;;;;;;6.32;5.47;;;25.90;99.90;;;;;;5114030;28;20631;-74
2023/08/19 03:38:13;;;;;;;8.48;5.47;;;25.90;99.90;;;;;;5114276;28;20167;-75
2023/08/19 03:40:39;;;;;;;9.00;6.22;;;25.90;99.90;;;;;;5114307;28;20210;-75
2023/08/19 03:43:08;;;;;;;6.35;5.75;;;25.80;99.90;;;;;;5113683;28;20255;-75
2023/08/19 03:45:34;;;;;;;6.20;5.60;;;25.80;99.90;;;;;;5114184;28;20258;-75
2023/08/19 03:48:00;;;;;;;6.47;5.60;;;25.70;99.90;;;;;;5113881;28;20191;-75
2023/08/19 03:50:25;;;;;;;7.15;5.90;;;25.80;99.90;;;;;;5114474;28;20565;-75
2023/08/19 03:52:51;;;;;;;7.93;5.88;;;25.80;99.90;;;;;;5114305;28;20191;-76
2023/08/19 03:55:17;;;;;;;7.05;5.57;;;25.80;99.90;;;;;;5112567;28;20182;-76
2023/08/19 03:57:43;;;;;;;7.20;5.93;;;25.80;99.90;;;;;;5113744;28;20174;-76
2023/08/19 04:00:10;;;;;;;8.32;6.38;;;25.80;99.90;;;;;;5113897;28;20171;-76
2023/08/19 04:02:35;;;;;;;7.15;6.45;;;25.90;99.90;;;;;;5113906;28;20205;-76
2023/08/19 04:05:03;;;;;;;6.25;5.65;;;25.90;99.90;;;;;;5113670;28;20602;-77
2023/08/19 04:07:28;;;;;;;7.35;5.97;;;25.80;99.90;;;;;;5114022;28;20236;-75
2023/08/19 04:09:55;;;;;;;7.50;6.03;;;25.80;99.90;;;;;;5113747;28;20522;-75
2023/08/19 04:12:22;;;;;;;10.45;5.65;;;25.80;99.90;;;;;;5113111;28;20174;-75
2023/08/19 04:14:47;;;;;;;6.22;5.70;;;25.80;99.90;;;;;;5113985;28;20167;-76
2023/08/19 04:17:13;;;;;;;6.10;5.43;;;25.80;99.90;;;;;;5113338;28;20297;-75
2023/08/19 04:19:39;;;;;;;6.45;5.80;;;25.80;99.90;;;;;;5113545;28;20179;-75
2023/08/19 04:22:04;;;;;;;8.80;5.68;;;25.90;99.90;;;;;;5113673;28;20178;-75
2023/08/19 04:24:32;;;;;;;7.97;5.60;;;25.90;99.90;;;;;;5113275;28;20619;-75
2023/08/19 04:26:59;;;;;;;9.85;5.85;;;25.90;99.90;;;;;;5111856;28;20209;-75
2023/08/19 04:29:25;;;;;;;7.20;5.60;;;26.00;99.90;;;;;;5113693;28;20195;-76
2023/08/19 04:31:50;;;;;;;8.30;5.78;;;26.00;99.90;;;;;;5112382;28;20167;-75
2023/08/19 04:34:16;;;;;;;6.57;5.63;;;26.00;99.90;;;;;;5115233;28;20178;-76
2023/08/19 04:36:41;;;;;;;8.23;5.72;;;26.00;99.90;;;;;;5111975;28;20171;-75
2023/08/19 04:39:07;;;;;;;6.57;5.47;;;26.10;99.90;;;;;;5113543;28;20159;-76
2023/08/19 04:41:34;;;;;;;7.90;5.47;;;26.00;99.90;;;;;;5112989;28;20553;-76
2023/08/19 04:43:59;;;;;;;8.30;5.63;;;26.00;99.90;;;;;;5113386;28;20199;-76
2023/08/19 04:46:25;;;;;;;5.80;5.40;;;26.00;99.90;;;;;;5116319;28;20178;-75
2023/08/19 04:48:51;;;;;;;7.00;6.15;;;26.00;99.90;;;;;;5117335;28;20198;-75
2023/08/19 04:51:17;;;;;;;10.55;5.80;;;25.90;99.90;;;;;;5117335;28;20235;-74
2023/08/19 04:53:42;;;;;;;7.50;6.22;;;26.00;99.90;;;;;;5117418;28;20178;-75
2023/08/19 04:56:08;;;;;;;5.90;5.32;;;26.00;99.90;;;;;;5116791;28;20625;-75
2023/08/19 04:58:34;;;;;;;5.95;5.55;;;26.00;99.90;;;;;;5115669;28;20179;-75
2023/08/19 05:01:00;;;;;;;8.35;6.05;;;26.00;99.90;;;;;;5117258;28;20614;-74
2023/08/19 05:03:26;;;;;;;7.43;5.60;;;26.00;99.90;;;;;;5117131;28;20210;-75
2023/08/19 05:05:51;;;;;;;6.80;6.10;;;26.00;99.90;;;;;;5117048;28;20164;-75
2023/08/19 05:08:17;;;;;;;6.40;5.80;;;26.00;99.90;;;;;;5115721;28;20182;-75
2023/08/19 05:10:42;;;;;;;8.48;5.50;;;26.00;99.90;;;;;;5116622;28;20174;-75
2023/08/19 05:13:08;;;;;;;8.35;5.90;;;25.90;99.90;;;;;;5117029;28;20586;-75
2023/08/19 05:15:35;;;;;;;7.20;6.20;;;25.90;99.90;;;;;;5117003;28;20262;-75
2023/08/19 05:18:01;;;;;;;6.07;5.45;;;25.90;99.90;;;;;;5116299;28;20254;-75
2023/08/19 05:20:26;;;;;;;8.25;5.40;;;25.90;99.90;;;;;;5116687;28;20567;-75
2023/08/19 05:22:52;;;;;;;6.60;5.72;;;25.80;99.90;;;;;;5115501;28;20301;-75
2023/08/19 05:25:17;;;;;;;9.90;5.90;;;25.90;99.90;;;;;;5116039;28;20232;-74
2023/08/19 05:27:43;;;;;;;6.68;5.80;;;25.80;99.90;;;;;;5116875;28;20209;-73
2023/08/19 05:30:09;;;;;;;8.63;5.57;;;25.90;99.90;;;;;;5116203;28;20174;-74
2023/08/19 05:32:35;;;;;;;6.22;5.10;;;26.00;99.90;;;;;;5116581;28;20168;-74
2023/08/19 05:35:00;;;;;;;8.60;5.65;;;26.00;99.90;;;;;;5116517;28;20178;-74
2023/08/19 05:37:26;;;;;;;7.47;5.70;;;26.10;99.90;;;;;;5115116;28;20167;-74
2023/08/19 05:39:52;;;;;;;8.68;5.63;;;26.20;99.90;;;;;;5115753;28;20164;-74
2023/08/19 05:42:18;;;;;;;6.50;5.28;;;26.20;99.90;;;;;;5116328;28;20198;-74
2023/08/19 05:44:43;;;;;;;8.38;5.30;;;26.20;99.90;;;;;;5116674;28;20179;-74
2023/08/19 05:47:09;;;;;;;5.55;5.05;;;26.40;99.90;;;;;;5116258;28;20187;-74
2023/08/19 05:49:35;;;;;;;8.73;5.53;;;26.50;99.90;;;;;;5116148;28;20178;-74
2023/08/19 05:52:00;;;;;;;8.43;5.68;;;26.70;99.90;;;;;;5114876;28;20189;-74
2023/08/19 05:54:26;;;;;;;9.68;5.95;;;26.80;99.90;;;;;;5114288;28;20619;-75
2023/08/19 05:56:52;;;;;;;7.55;5.95;;;26.80;99.90;;;;;;5115490;28;20254;-75
2023/08/19 05:59:17;;;;;;;6.07;5.18;;;26.70;99.90;;;;;;5115626;28;20171;-75
2023/08/19 06:01:43;;;;;;;6.20;5.35;;;26.60;99.90;;;;;;5115695;28;20649;-75
2023/08/19 06:04:09;;;;;;;5.57;5.18;;;26.60;99.90;;;;;;5115846;28;20285;-75
2023/08/19 06:06:34;;;;;;;7.20;5.25;;;26.70;99.90;;;;;;5114523;28;20167;-75
2023/08/19 06:09:00;;;;;;;6.50;5.60;;;26.80;99.90;;;;;;5115261;28;20220;-75
2023/08/19 06:11:25;;;;;;;7.45;5.65;;;26.60;99.90;;;;;;5116122;28;20174;-75
2023/08/19 06:13:52;;;;;;;8.07;5.18;;;26.70;99.90;;;;;;5114313;28;20511;-75
2023/08/19 06:16:18;;;;;;;6.57;5.78;;;26.80;99.90;;;;;;5115675;28;20171;-75
2023/08/19 06:18:43;;;;;;;10.15;5.43;;;26.70;99.90;;;;;;5114201;28;20256;-75
2023/08/19 06:21:09;;;;;;;7.25;5.70;;;26.70;99.90;;;;;;5115667;28;20261;-75
2023/08/19 06:23:35;;;;;;;9.02;6.43;;;26.60;99.90;;;;;;5114972;28;20667;-75
2023/08/19 06:26:01;;;;;;;8.95;5.60;;;26.60;99.90;;;;;;5115182;28;20167;-75
2023/08/19 06:28:26;;;;;;;6.88;5.47;;;26.70;99.90;;;;;;5115582;28;20246;-74
2023/08/19 06:30:52;;;;;;;8.23;5.47;;;26.80;99.90;;;;;;5115573;28;20721;-75
2023/08/19 06:33:18;;;;;;;8.13;5.75;;;26.70;99.90;;;;;;5115703;28;20167;-76
2023/08/19 06:35:48;;;;;;;5.97;5.38;;;26.60;99.90;;;;;;5115047;28;20171;-74
2023/08/19 06:38:26;;;;;;;6.43;5.72;;;26.60;99.90;;;;;;5114297;28;20183;-74
2023/08/19 06:41:02;;;;;;;5.90;5.38;;;26.60;99.90;;;;;;5115005;28;20297;-74
2023/08/19 06:43:31;;;;;;;7.88;5.88;;;26.60;99.90;;;;;;5115159;28;20343;-75
2023/08/19 06:45:57;;;;;;;8.18;6.13;;;26.70;99.90;;;;;;5114781;28;20167;-74
2023/08/19 06:48:24;;;;;;;8.48;5.72;;;26.80;99.90;;;;;;5114897;28;20191;-74
2023/08/19 06:50:53;;;;;;;8.57;6.43;;;26.80;99.90;;;;;;5114261;28;20194;-75
2023/08/19 06:53:20;;;;;;;6.68;6.07;;;26.80;99.90;;;;;;5115178;28;20163;-75
2023/08/19 06:55:50;;;;;;;10.82;6.57;;;26.70;99.90;;;;;;5114462;28;20174;-74
2023/08/19 06:58:25;;;;;;;7.57;5.88;;;26.60;99.90;;;;;;5115018;28;20170;-74
2023/08/19 07:00:58;;;;;;;8.05;6.28;;;26.70;99.90;;;;;;5114702;28;20185;-74
2023/08/19 07:03:33;;;;;;;6.53;5.93;;;26.70;99.90;;;;;;5114769;28;20712;-74
2023/08/19 07:06:02;;;;;;;9.30;6.43;;;26.70;99.90;;;;;;5114680;28;20159;-74
2023/08/19 07:08:30;;;;;;;8.00;6.57;;;26.70;99.90;;;;;;5113772;28;20171;-75
2023/08/19 07:10:59;;;;;;;7.15;6.35;;;26.60;99.90;;;;;;5114419;28;20212;-75
2023/08/19 07:13:24;;;;;;;11.57;6.53;;;26.60;99.90;;;;;;5114286;27;20201;-75
2023/08/19 07:16:03;;;;;;;8.55;6.47;;;26.50;99.90;;;;;;5114418;28;20163;-75
2023/08/19 07:18:34;;;;;;;9.15;6.72;;;26.70;99.90;;;;;;5114299;28;20267;-75
2023/08/19 07:21:02;;;;;;;7.28;6.45;;;26.70;99.90;;;;;;5114059;28;20167;-75
2023/08/19 07:23:28;;;;;;;7.07;6.40;;;26.60;99.90;;;;;;5113141;28;20560;-75
2023/08/19 07:25:54;;;;;;;8.20;6.70;;;26.70;99.90;;;;;;5114046;28;20183;-75
2023/08/19 07:28:23;;;;;;;11.30;7.22;;;26.70;99.90;;;;;;5114324;28;20174;-75
2023/08/19 07:30:48;;;;;;;7.25;6.55;;;26.60;99.90;;;;;;5114154;28;20183;-75
2023/08/19 07:33:14;;;;;;;11.02;6.72;;;26.80;99.90;;;;;;5114308;28;20182;-75
2023/08/19 07:35:40;;;;;;;9.77;7.22;;;26.80;99.90;;;;;;5113729;28;20163;-76
2023/08/19 07:38:06;;;;;;;7.88;6.93;;;26.90;99.90;;;;;;5114220;28;20489;-75
2023/08/19 07:40:32;;;;;;;9.23;6.65;;;27.00;99.90;;;;;;5113990;28;20164;-75
2023/08/19 07:42:57;;;;;;;11.48;6.97;;;27.20;99.90;;;;;;5113877;28;20209;-75
2023/08/19 07:45:23;;;;;;;8.38;6.95;;;27.30;99.90;;;;;;5113443;28;20167;-75
2023/08/19 07:47:49;;;;;;;7.35;6.65;;;27.30;99.90;;;;;;5113607;28;20722;-75
2023/08/19 07:50:14;;;;;;;8.90;7.30;;;27.60;99.90;;;;;;5112308;28;20600;-74
2023/08/19 07:52:40;;;;;;;8.55;7.28;;;27.70;99.90;;;;;;5114085;28;20175;-75
2023/08/19 07:55:07;;;;;;;11.50;7.93;;;27.60;99.90;;;;;;5113910;28;20551;-75
2023/08/19 07:57:32;;;;;;;8.55;7.80;;;27.50;99.90;;;;;;5113609;28;20177;-74
2023/08/19 07:59:58;;;;;;;8.43;7.28;;;27.40;99.90;;;;;;5112327;28;20171;-74
2023/08/19 08:02:24;;;;;;;7.60;6.68;;;27.10;99.90;;;;;;5113258;28;20255;-74
2023/08/19 08:04:50;;;;;;;7.85;7.25;;;26.80;99.90;;;;;;5112907;28;20247;-74
2023/08/19 08:07:16;;;;;;;8.52;7.53;;;26.80;99.90;;;;;;5113305;28;20205;-74
2023/08/19 08:09:45;;;;;;;8.35;7.32;;;26.60;99.90;;;;;;5113589;28;20320;-74
2023/08/19 08:12:11;;;;;;;8.65;6.63;;;26.70;99.90;;;;;;5113566;28;20175;-76
2023/08/19 08:14:37;;;;;;;8.68;7.63;;;26.90;99.90;;;;;;5113666;28;20181;-75
2023/08/19 08:17:03;;;;;;;7.68;6.97;;;27.00;99.90;;;;;;5112724;28;20313;-75
2023/08/19 08:19:28;;;;;;;8.32;7.70;;;27.10;99.90;;;;;;5112843;28;20160;-74
2023/08/19 08:21:54;;;;;;;7.72;7.03;;;27.30;99.90;;;;;;5111549;28;20601;-75
2023/08/19 08:24:21;;;;;;;7.50;6.88;;;27.40;99.90;;;;;;5112592;28;20199;-74
2023/08/19 08:26:47;;;;;;;10.70;6.55;;;27.50;99.90;;;;;;5113539;28;20189;-74
2023/08/19 08:29:13;;;;;;;8.98;6.70;;;27.80;99.90;;;;;;5113351;28;20175;-75
2023/08/19 08:31:38;;;;;;;8.32;6.50;;;27.50;99.90;;;;;;5112868;28;20175;-74
2023/08/19 08:34:05;;;;;;;6.93;6.13;;;27.60;99.90;;;;;;5113326;28;20174;-74
2023/08/19 08:36:30;;;;;;;7.25;6.28;;;27.80;99.90;;;;;;5113372;28;20175;-74
2023/08/19 08:38:56;;;;;;;7.72;6.57;;;27.60;99.90;;;;;;5113318;28;20670;-75
2023/08/19 08:41:22;;;;;;;6.57;5.97;;;27.90;99.90;;;;;;5113143;28;20167;-75
2023/08/19 08:43:48;;;;;;;6.15;5.65;;;28.00;99.90;;;;;;5113385;28;20211;-75
2023/08/19 08:46:17;;;;;;;6.72;6.13;;;28.40;99.90;;;;;;5112979;28;20232;-74
2023/08/19 08:48:44;;;;;;;5.28;4.97;;;28.60;99.90;;;;;;5112676;28;20191;-75
2023/08/19 08:51:10;;;;;;;5.72;5.28;;;28.30;99.90;;;;;;5113204;28;20240;-75
2023/08/19 08:53:36;;;;;;;5.10;4.80;;;28.00;99.90;;;;;;5112931;28;20595;-75
2023/08/19 08:56:02;;;;;;;5.32;4.88;;;28.20;99.90;;;;;;5112476;28;20176;-75
2023/08/19 08:58:28;;;;;;;7.28;5.95;;;28.40;99.90;;;;;;5112686;28;20178;-75
2023/08/19 09:00:54;;;;;;;6.85;5.70;;;28.50;99.90;;;;;;5112458;28;20167;-74
2023/08/19 09:03:24;;;;;;;6.32;5.82;;;28.50;99.90;;;;;;5113365;28;20207;-75
2023/08/19 09:05:56;;;;;;;8.02;6.05;;;28.70;99.90;;;;;;5112263;28;20246;-76
2023/08/19 09:08:31;;;;;;;6.60;5.90;;;29.40;99.90;;;;;;5112985;28;20179;-75
2023/08/19 09:11:00;;;;;;;5.85;5.38;;;30.10;99.90;;;;;;5113251;28;20162;-75
2023/08/19 09:13:26;;;;;;;8.05;5.93;;;30.20;99.90;;;;;;5112985;28;20167;-75
2023/08/19 09:15:52;;;;;;;6.15;5.65;;;30.30;99.90;;;;;;5112638;28;20160;-75
2023/08/19 09:18:19;;;;;;;8.32;6.20;;;29.80;99.90;;;;;;5112879;28;20305;-75
2023/08/19 09:20:45;;;;;;;6.53;6.03;;;29.30;99.90;;;;;;5112378;28;20649;-74
2023/08/19 09:23:11;;;;;;;6.28;5.72;;;29.20;99.90;;;;;;5112718;28;20310;-74
2023/08/19 09:25:39;;;;;;;6.50;5.90;;;29.30;99.90;;;;;;5112571;28;20300;-74
2023/08/19 09:28:05;;;;;;;6.88;5.95;;;29.20;99.90;;;;;;5112691;28;20183;-74
2023/08/19 09:30:35;;;;;;;6.43;5.85;;;29.30;99.90;;;;;;5112312;28;20271;-74
2023/08/19 09:33:02;;;;;;;6.05;5.55;;;29.40;99.90;;;;;;5114678;28;20228;-75
2023/08/19 09:35:36;;;;;;;6.97;5.95;;;29.50;99.90;;;;;;5116367;28;20203;-74
2023/08/19 09:38:02;;;;;;;7.47;6.15;;;29.20;99.90;;;;;;5116380;28;20179;-74
2023/08/19 09:40:27;;;;;;;7.10;6.50;;;29.10;99.90;;;;;;5116532;28;20179;-73
2023/08/19 09:42:57;;;;;;;7.13;6.53;;;28.40;99.90;;;;;;5116042;28;20587;-74
2023/08/19 09:45:28;;;;;;;6.55;6.05;;;28.20;99.90;;;;;;5116029;28;20181;-75
2023/08/19 09:47:54;;;;;;;6.93;4.93;;;27.80;99.90;;;;;;5115746;28;20201;-74
2023/08/19 09:50:23;;;;;;;5.70;5.20;;;27.70;99.90;;;;;;5116299;28;20163;-74
2023/08/19 09:52:54;;;;;;;5.78;5.28;;;27.60;99.90;;;;;;5116168;28;20182;-74
2023/08/19 09:55:27;;;;;;;5.88;5.35;;;27.80;99.90;;;;;;5115919;28;20266;-74
2023/08/19 09:57:53;;;;;;;6.53;5.63;;;27.70;99.90;;;;;;5115832;28;20179;-74
2023/08/19 10:00:19;;;;;;;6.68;5.82;;;27.40;99.90;;;;;;5114379;28;20602;-74
2023/08/19 10:02:45;;;;;;;7.70;6.28;;;27.40;99.90;;;;;;5115794;28;20238;-76
2023/08/19 10:05:10;;;;;;;6.63;6.03;;;27.30;99.90;;;;;;5115853;28;20203;-75
2023/08/19 10:07:40;;;;;;;9.65;6.18;;;27.20;99.90;;;;;;5115521;28;20533;-75
2023/08/19 10:10:11;;;;;;;6.20;5.60;;;26.90;99.90;;;;;;5115604;28;20234;-75
2023/08/19 10:12:40;;;;;;;6.47;5.88;;;26.70;99.90;;;;;;5115143;28;20163;-75
2023/08/19 10:15:08;;;;;;;6.30;5.45;;;26.60;99.90;;;;;;5115137;28;20167;-74
2023/08/19 10:17:36;;;;;;;8.05;5.95;;;26.60;99.90;;;;;;5115120;27;20268;-74
2023/08/19 10:20:10;;;;;;;6.07;5.57;;;26.80;99.90;;;;;;5115620;28;20522;-74
2023/08/19 10:22:38;;;;;;;7.43;6.43;;;26.80;99.90;;;;;;5115543;28;20287;-74
2023/08/19 10:25:05;;;;;;;7.15;6.45;;;26.60;99.90;;;;;;5114980;28;20259;-74
2023/08/19 10:27:32;;;;;;;6.93;6.32;;;26.70;99.90;;;;;;5115250;28;20159;-74
2023/08/19 10:29:58;;;;;;;6.75;6.05;;;26.70;99.90;;;;;;5114849;28;20179;-74
2023/08/19 10:32:33;;;;;;;8.60;5.95;;;26.50;99.90;;;;;;5115220;28;20171;-75
2023/08/19 10:35:09;;;;;;;8.18;6.95;;;26.70;99.90;;;;;;5114953;28;20175;-75
2023/08/19 10:37:41;;;;;;;6.32;5.85;;;26.70;99.90;;;;;;5115365;28;20178;-75
2023/08/19 10:40:14;;;;;;;8.00;5.72;;;26.70;99.90;;;;;;5114861;28;20175;-76
2023/08/19 10:42:40;;;;;;;6.20;5.75;;;26.40;99.90;;;;;;5114865;27;20527;-75
2023/08/19 10:45:16;;;;;;;5.75;5.35;;;26.20;99.90;;;;;;5115216;28;20167;-75
2023/08/19 10:47:42;;;;;;;5.90;5.15;;;26.00;99.90;;;;;;5114375;28;20225;-75
2023/08/19 10:50:09;;;;;;;6.70;5.63;;;25.90;99.90;;;;;;5114888;28;20199;-75
2023/08/19 10:52:56;;;;;;;5.57;5.18;;;25.90;99.90;;;;;;5114598;28;20205;-75
2023/08/19 10:55:22;;;;;;;5.82;5.25;;;25.80;99.90;;;;;;5114715;28;20221;-74
2023/08/19 10:57:48;;;;;;;5.75;5.22;;;25.80;99.90;;;;;;5114606;28;20643;-76
2023/08/19 11:00:14;;;;;;;6.20;5.60;;;25.70;99.90;;;;;;5114573;28;20212;-75
2023/08/19 11:02:40;;;;;;;5.85;5.25;;;26.00;99.90;;;;;;5113956;28;20294;-74
2023/08/19 11:05:07;;;;;;;6.07;5.50;;;26.20;99.90;;;;;;5113468;28;20179;-75
2023/08/19 11:07:33;;;;;;;7.20;5.78;;;26.40;99.90;;;;;;5114768;28;20163;-74
2023/08/19 11:09:59;;;;;;;6.57;5.97;;;26.50;99.90;;;;;;5114270;28;20338;-74
2023/08/19 11:12:29;;;;;;;6.78;5.50;;;26.60;99.90;;;;;;5112504;28;20167;-74
2023/08/19 11:14:55;;;;;;;5.85;5.13;;;26.90;99.90;;;;;;5113423;28;20539;-75
2023/08/19 11:17:33;;;;;;;6.00;5.40;;;27.30;99.90;;;;;;5113457;28;20233;-75
2023/08/19 11:20:13;;;;;;;5.13;4.72;;;27.70;99.90;;;;;;5114667;28;20289;-75
2023/08/19 11:22:49;;;;;;;5.22;4.70;;;27.30;99.90;;;;;;5114249;28;20187;-75
2023/08/19 11:25:15;;;;;;;4.40;4.00;;;27.20;99.90;;;;;;5112726;28;20186;-74
2023/08/19 11:27:41;;;;;;;7.45;5.22;;;26.80;99.90;;;;;;5113180;28;20206;-74
2023/08/19 11:30:14;;;;;;;4.18;3.25;;;26.60;99.90;;;;;;5114267;28;20164;-74
2023/08/19 11:32:47;;;;;;;5.20;3.13;;;26.50;99.90;;;;;;5114125;28;20244;-74
2023/08/19 11:35:13;;;;;;;5.07;3.38;;;26.60;99.90;;;;;;5114031;28;20167;-75
2023/08/19 11:37:41;;;;;;;2.85;2.58;;;26.30;99.90;;;;;;5113704;28;20171;-75
2023/08/19 11:40:08;;;;;;;4.30;3.15;;;26.10;99.90;;;;;;5113746;28;20189;-74
2023/08/19 11:42:33;;;;;;;4.45;3.85;;;25.90;99.90;;;;;;5113372;28;20183;-75
2023/08/19 11:44:59;;;;;;;4.22;3.42;;;25.70;99.90;;;;;;5113600;28;20175;-75
2023/08/19 11:47:25;;;;;;;3.83;3.10;;;25.40;99.90;;;;;;5113627;28;20191;-76
2023/08/19 11:49:51;;;;;;;5.72;3.78;;;25.40;99.90;;;;;;5113271;28;20171;-75
2023/08/19 11:52:20;;;;;;;5.15;3.60;;;25.30;99.90;;;;;;5114196;28;20224;-75
2023/08/19 11:55:00;;;;;;;4.32;3.67;;;25.20;99.90;;;;;;5113404;28;20248;-75
2023/08/19 11:57:32;;;;;;;5.93;3.40;;;25.10;99.90;;;;;;5113264;28;20237;-76
2023/08/19 11:59:57;;;;;;;5.80;3.60;;;25.20;99.90;;;;;;5113209;28;20585;-75
2023/08/19 12:02:24;;;;;;;6.93;3.70;;;25.20;99.90;;;;;;5113161;28;20195;-75
2023/08/19 12:04:53;;;;;;;4.18;3.65;;;25.10;99.90;;;;;;5113057;28;20182;-75
2023/08/19 12:07:28;;;;;;;4.90;4.13;;;25.10;99.90;;;;;;5112409;28;20164;-74
2023/08/19 12:09:58;;;;;;;4.30;3.90;;;25.00;99.90;;;;;;5113284;28;20179;-74
2023/08/19 12:12:24;;;;;;;8.20;3.90;;;24.70;99.90;;;;;;5113422;28;20171;-75
2023/08/19 12:14:49;;;;;;;4.97;3.92;;;24.70;99.90;;;;;;5113245;28;20232;-75
2023/08/19 12:17:16;;;;;;;4.88;3.63;;;24.70;99.90;;;;;;5112784;28;20685;-74
2023/08/19 12:19:41;;;;;;;6.15;3.72;;;24.60;99.90;;;;;;5113180;28;20179;-75
2023/08/19 12:22:09;;;;;;;3.33;2.88;;;24.50;99.90;;;;;;5113128;28;20220;-74
2023/08/19 12:24:34;;;;;;;3.53;2.67;;;24.50;99.90;;;;;;5112972;28;20209;-75
2023/08/19 12:27:00;;;;;;;4.82;2.92;;;24.50;99.90;;;;;;5113092;28;20167;-75
2023/08/19 12:29:27;;;;;;;3.33;2.83;;;24.50;99.90;;;;;;5113220;28;20163;-76
2023/08/19 12:31:52;;;;;;;9.65;3.15;;;24.40;99.90;;;;;;5113570;28;20534;-74
2023/08/19 12:34:18;;;;;;;3.13;2.85;;;24.40;99.90;;;;;;5112852;28;20603;-75
2023/08/19 12:36:44;;;;;;;4.63;2.67;;;24.10;99.90;;;;;;5113037;28;20171;-75
2023/08/19 12:39:09;;;;;;;5.20;2.90;;;24.10;99.90;;;;;;5112334;28;20278;-75
2023/08/19 12:41:35;;;;;;;3.40;2.60;;;24.30;99.90;;;;;;5113131;28;20565;-75
2023/08/19 12:44:01;;;;;;;4.07;2.72;;;24.30;99.90;;;;;;5111727;28;20674;-75
2023/08/19 12:46:44;;;;;;;3.13;2.45;;;24.30;99.90;;;;;;5111649;28;20250;-75